Marella Discovery — 9HA4324 — position and weather

sailwx.info

Track history (hours):
 
Tides and Currents Weather Stations Pressure Air Temp Water Temp Dewpoint Dewpoint Depression Visibility Wind Speed Wind Dir Waves Ship Positions

Marella Discovery

Last reported at 2017-Nov-18 11:35 UTC. Time now 2017-Nov-21 06:27 UTC.
Position N 14°01' W 060°60'.

Length 264 m; draft 8 m.

Type: Passenger vessel. MMSI: 249639000.

Date/timePositionNaut miles runAvg speedWind from/ knotsBaromVisibWave heightAir tempDewpointWater temp
2017-Nov-18 11:35N 14°01' W 060°60'2 2.9
2017-Nov-18 11:01N 14°02' W 061°01'0 5.9
2017-Nov-18 11:00N 14°02' W 061°01'13116.4
2017-Nov-18 03:01N 15°57' W 062°04'415.6
2017-Nov-18 02:47N 16°01' W 062°06'415.7
2017-Nov-18 02:30N 16°05' W 062°08'816.0
2017-Nov-18 02:01N 16°12' W 062°12'816.3
2017-Nov-18 01:30N 16°19' W 062°16'816.1
2017-Nov-18 01:01N 16°26' W 062°20'815.9
2017-Nov-18 00:31N 16°33' W 062°25'816.1
2017-Nov-18 00:01N 16°40' W 062°29'1616.1
2017-Nov-17 23:01N 16°54' W 062°36'2415.0
2017-Nov-17 21:26N 17°17' W 062°44'1 0.1
2017-Nov-17 10:47N 17°17' W 062°43'3413.0
2017-Nov-17 08:12N 16°45' W 062°33'316.1
2017-Nov-17 08:01N 16°42' W 062°32'816.4
2017-Nov-17 07:30N 16°35' W 062°26'816.1
2017-Nov-17 07:01N 16°29' W 062°22'815.9
2017-Nov-17 06:30N 16°22' W 062°17'816.0
2017-Nov-17 06:01N 16°15' W 062°13'816.0
2017-Nov-17 05:29N 16°08' W 062°09'1316.5
2017-Nov-17 04:43N 15°56' W 062°03'3516.1
2017-Nov-17 02:34N 15°25' W 061°47'115.7
2017-Nov-17 02:29N 15°24' W 061°47'915.4
2017-Nov-17 01:53N 15°16' W 061°42'615.2
2017-Nov-17 01:30N 15°11' W 061°39'4117.0
2017-Nov-16 23:05N 14°38' W 061°13'118.6
2017-Nov-16 23:01N 14°38' W 061°12'815.2
2017-Nov-16 22:30N 14°35' W 061°05'2 3.2
2017-Nov-16 22:00N 14°36' W 061°04'0 0.0
2017-Nov-16 21:29N 14°36' W 061°04'0 0.0
2017-Nov-16 20:59N 14°36' W 061°04'0 0.0
2017-Nov-16 20:29N 14°36' W 061°04'0 0.0
2017-Nov-16 19:59N 14°36' W 061°04'0 0.0
2017-Nov-16 19:30N 14°36' W 061°04'0 0.0
2017-Nov-16 18:59N 14°36' W 061°04'0 0.0
2017-Nov-16 18:29N 14°36' W 061°04'0 0.0
2017-Nov-16 18:00N 14°36' W 061°04'0 0.0
2017-Nov-16 17:29N 14°36' W 061°04'0 0.0
2017-Nov-16 16:59N 14°36' W 061°04'0 0.0
2017-Nov-16 16:29N 14°36' W 061°04'0 0.0
2017-Nov-16 15:59N 14°36' W 061°04'0 0.0
2017-Nov-16 15:29N 14°36' W 061°04'0 0.0
2017-Nov-16 15:00N 14°36' W 061°04'0 0.0
2017-Nov-16 14:29N 14°36' W 061°04'0 0.0
2017-Nov-16 13:59N 14°36' W 061°04'0 0.0
2017-Nov-16 13:29N 14°36' W 061°04'0 0.0
2017-Nov-16 12:59N 14°36' W 061°04'0 0.0
2017-Nov-16 12:29N 14°36' W 061°04'0 0.0
2017-Nov-16 11:59N 14°36' W 061°04'0 0.0
2017-Nov-16 11:29N 14°36' W 061°04'0 0.0
2017-Nov-16 11:00N 14°36' W 061°04'0 1.0
2017-Nov-16 10:31N 14°36' W 061°04'4 7.9
2017-Nov-16 10:00N 14°35' W 061°08'611.5
2017-Nov-16 09:30N 14°35' W 061°14'611.3
2017-Nov-16 09:00N 14°35' W 061°20'611.0
2017-Nov-16 08:30N 14°37' W 061°25'510.7
2017-Nov-16 08:00N 14°41' W 061°28'510.4
2017-Nov-16 07:30N 14°46' W 061°30'4910.8
2017-Nov-16 02:56N 15°33' W 061°46'510.9
2017-Nov-16 02:30N 15°36' W 061°42'610.7
2017-Nov-16 01:57N 15°41' W 061°38'611.0
2017-Nov-16 01:26N 15°45' W 061°34'2410.0
2017-Nov-15 23:05N 16°07' W 061°27'110.6
2017-Nov-15 23:00N 16°08' W 061°27'4 9.0
2017-Nov-15 22:31N 16°09' W 061°32'4 7.4
2017-Nov-15 21:59N 16°13' W 061°32'1 1.7
2017-Nov-15 21:23N 16°14' W 061°32'0 0.0
2017-Nov-15 20:56N 16°14' W 061°32'0 0.0
2017-Nov-15 20:26N 16°14' W 061°32'0 0.0
2017-Nov-15 19:59N 16°14' W 061°32'0 0.0
2017-Nov-15 19:29N 16°14' W 061°32'0 0.0
2017-Nov-15 18:59N 16°14' W 061°32'0 0.0
2017-Nov-15 18:29N 16°14' W 061°32'0 0.0
2017-Nov-15 17:59N 16°14' W 061°32'0 0.0
2017-Nov-15 17:26N 16°14' W 061°32'0 0.0
2017-Nov-15 16:59N 16°14' W 061°32'0 0.0
2017-Nov-15 16:29N 16°14' W 061°32'0 0.0
2017-Nov-15 15:59N 16°14' W 061°32'0 0.0
2017-Nov-15 15:23N 16°14' W 061°32'0 0.0
2017-Nov-15 14:56N 16°14' W 061°32'0 0.0
2017-Nov-15 14:26N 16°14' W 061°32'0 0.0
2017-Nov-15 13:47N 16°14' W 061°32'0 0.0
2017-Nov-15 13:26N 16°14' W 061°32'0 0.0
2017-Nov-15 12:56N 16°14' W 061°32'0 0.0
2017-Nov-15 12:29N 16°14' W 061°32'0 0.0
2017-Nov-15 11:59N 16°14' W 061°32'0 0.0
2017-Nov-15 11:30N 16°14' W 061°32'1 2.2
2017-Nov-15 11:00N 16°13' W 061°32'4 7.5
2017-Nov-15 10:30N 16°09' W 061°32'510.2
2017-Nov-15 10:00N 16°08' W 061°27'510.7
2017-Nov-15 09:30N 16°03' W 061°25'611.3
2017-Nov-15 08:56N 15°57' W 061°29'511.6
2017-Nov-15 08:30N 15°56' W 061°34'911.4
2017-Nov-15 07:44N 15°54' W 061°43'311.6
2017-Nov-15 07:30N 15°53' W 061°45'27 8.5
2017-Nov-15 04:17N 16°15' W 062°03'310.9
2017-Nov-15 04:00N 16°18' W 062°03'611.0
2017-Nov-15 03:30N 16°23' W 062°02'511.0
2017-Nov-15 03:00N 16°29' W 062°02'510.7
2017-Nov-15 02:30N 16°34' W 062°02'510.7
2017-Nov-15 02:00N 16°40' W 062°01'510.7
2017-Nov-15 01:31N 16°45' W 062°01'510.5
2017-Nov-15 01:00N 16°50' W 062°00'510.5
2017-Nov-15 00:30N 16°55' W 062°00'510.6
2017-Nov-15 00:00N 17°01' W 061°59'510.6
2017-Nov-14 23:30N 17°06' W 061°59'4 8.6
2017-Nov-14 23:00N 17°09' W 061°55'4 8.4
2017-Nov-14 22:30N 17°07' W 061°51'0 0.6
2017-Nov-14 22:00N 17°07' W 061°51'0 0.0
2017-Nov-14 21:30N 17°07' W 061°51'0 0.0
2017-Nov-14 21:00N 17°07' W 061°51'0 0.0
2017-Nov-14 20:30N 17°07' W 061°51'0 0.0
2017-Nov-14 20:00N 17°07' W 061°51'0 0.0
2017-Nov-14 19:30N 17°07' W 061°51'0 0.0
2017-Nov-14 19:00N 17°07' W 061°51'0 0.0
2017-Nov-14 18:30N 17°07' W 061°51'0 0.0
2017-Nov-14 18:00N 17°07' W 061°51'0 0.0
2017-Nov-14 17:30N 17°07' W 061°51'0 0.0
2017-Nov-14 17:00N 17°07' W 061°51'0 0.0
2017-Nov-14 16:30N 17°07' W 061°51'0 0.0
2017-Nov-14 16:00N 17°07' W 061°51'0 0.0
2017-Nov-14 15:30N 17°07' W 061°51'0 0.0
2017-Nov-14 15:00N 17°07' W 061°51'0 0.0
2017-Nov-14 14:30N 17°07' W 061°51'0 0.0
2017-Nov-14 14:00N 17°07' W 061°51'0 0.0
2017-Nov-14 13:30N 17°07' W 061°51'0 0.0
2017-Nov-14 13:00N 17°07' W 061°51'  
Track history (hours):
 
Tides and Currents Weather Stations Pressure Air Temp Water Temp Dewpoint Dewpoint Depression Visibility Wind Speed Wind Dir Waves Ship Positions

Marella Discovery

Last reported at 2017-Nov-18 11:35 UTC. Time now 2017-Nov-21 06:27 UTC.
Position N 14°01' W 060°60'.

Length 264 m; draft 8 m.

Type: Passenger vessel. MMSI: 249639000.

Date/timePositionNaut miles runAvg speedWind from/ knotsBaromVisibWave heightAir tempDewpointWater temp
2017-Nov-18 11:35N 14°01' W 060°60'2 2.9
2017-Nov-18 11:01N 14°02' W 061°01'0 5.9
2017-Nov-18 11:00N 14°02' W 061°01'13116.4
2017-Nov-18 03:01N 15°57' W 062°04'415.6
2017-Nov-18 02:47N 16°01' W 062°06'415.7
2017-Nov-18 02:30N 16°05' W 062°08'816.0
2017-Nov-18 02:01N 16°12' W 062°12'816.3
2017-Nov-18 01:30N 16°19' W 062°16'816.1
2017-Nov-18 01:01N 16°26' W 062°20'815.9
2017-Nov-18 00:31N 16°33' W 062°25'816.1
2017-Nov-18 00:01N 16°40' W 062°29'1616.1
2017-Nov-17 23:01N 16°54' W 062°36'2415.0
2017-Nov-17 21:26N 17°17' W 062°44'1 0.1
2017-Nov-17 10:47N 17°17' W 062°43'3413.0
2017-Nov-17 08:12N 16°45' W 062°33'316.1
2017-Nov-17 08:01N 16°42' W 062°32'816.4
2017-Nov-17 07:30N 16°35' W 062°26'816.1
2017-Nov-17 07:01N 16°29' W 062°22'815.9
2017-Nov-17 06:30N 16°22' W 062°17'816.0
2017-Nov-17 06:01N 16°15' W 062°13'816.0
2017-Nov-17 05:29N 16°08' W 062°09'1316.5
2017-Nov-17 04:43N 15°56' W 062°03'3516.1
2017-Nov-17 02:34N 15°25' W 061°47'115.7
2017-Nov-17 02:29N 15°24' W 061°47'915.4
2017-Nov-17 01:53N 15°16' W 061°42'615.2
2017-Nov-17 01:30N 15°11' W 061°39'4117.0
2017-Nov-16 23:05N 14°38' W 061°13'118.6
2017-Nov-16 23:01N 14°38' W 061°12'815.2
2017-Nov-16 22:30N 14°35' W 061°05'2 3.2
2017-Nov-16 22:00N 14°36' W 061°04'0 0.0
2017-Nov-16 21:29N 14°36' W 061°04'0 0.0
2017-Nov-16 20:59N 14°36' W 061°04'0 0.0
2017-Nov-16 20:29N 14°36' W 061°04'0 0.0
2017-Nov-16 19:59N 14°36' W 061°04'0 0.0
2017-Nov-16 19:30N 14°36' W 061°04'0 0.0
2017-Nov-16 18:59N 14°36' W 061°04'0 0.0
2017-Nov-16 18:29N 14°36' W 061°04'0 0.0
2017-Nov-16 18:00N 14°36' W 061°04'0 0.0
2017-Nov-16 17:29N 14°36' W 061°04'0 0.0
2017-Nov-16 16:59N 14°36' W 061°04'0 0.0
2017-Nov-16 16:29N 14°36' W 061°04'0 0.0
2017-Nov-16 15:59N 14°36' W 061°04'0 0.0
2017-Nov-16 15:29N 14°36' W 061°04'0 0.0
2017-Nov-16 15:00N 14°36' W 061°04'0 0.0
2017-Nov-16 14:29N 14°36' W 061°04'0 0.0
2017-Nov-16 13:59N 14°36' W 061°04'0 0.0
2017-Nov-16 13:29N 14°36' W 061°04'0 0.0
2017-Nov-16 12:59N 14°36' W 061°04'0 0.0
2017-Nov-16 12:29N 14°36' W 061°04'0 0.0
2017-Nov-16 11:59N 14°36' W 061°04'0 0.0
2017-Nov-16 11:29N 14°36' W 061°04'0 0.0
2017-Nov-16 11:00N 14°36' W 061°04'0 1.0
2017-Nov-16 10:31N 14°36' W 061°04'4 7.9
2017-Nov-16 10:00N 14°35' W 061°08'611.5
2017-Nov-16 09:30N 14°35' W 061°14'611.3
2017-Nov-16 09:00N 14°35' W 061°20'611.0
2017-Nov-16 08:30N 14°37' W 061°25'510.7
2017-Nov-16 08:00N 14°41' W 061°28'510.4
2017-Nov-16 07:30N 14°46' W 061°30'4910.8
2017-Nov-16 02:56N 15°33' W 061°46'510.9
2017-Nov-16 02:30N 15°36' W 061°42'610.7
2017-Nov-16 01:57N 15°41' W 061°38'611.0
2017-Nov-16 01:26N 15°45' W 061°34'2410.0
2017-Nov-15 23:05N 16°07' W 061°27'110.6
2017-Nov-15 23:00N 16°08' W 061°27'4 9.0
2017-Nov-15 22:31N 16°09' W 061°32'4 7.4
2017-Nov-15 21:59N 16°13' W 061°32'1 1.7
2017-Nov-15 21:23N 16°14' W 061°32'0 0.0
2017-Nov-15 20:56N 16°14' W 061°32'0 0.0
2017-Nov-15 20:26N 16°14' W 061°32'0 0.0
2017-Nov-15 19:59N 16°14' W 061°32'0 0.0
2017-Nov-15 19:29N 16°14' W 061°32'0 0.0
2017-Nov-15 18:59N 16°14' W 061°32'0 0.0
2017-Nov-15 18:29N 16°14' W 061°32'0 0.0
2017-Nov-15 17:59N 16°14' W 061°32'0 0.0
2017-Nov-15 17:26N 16°14' W 061°32'0 0.0
2017-Nov-15 16:59N 16°14' W 061°32'0 0.0
2017-Nov-15 16:29N 16°14' W 061°32'0 0.0
2017-Nov-15 15:59N 16°14' W 061°32'0 0.0
2017-Nov-15 15:23N 16°14' W 061°32'0 0.0
2017-Nov-15 14:56N 16°14' W 061°32'0 0.0
2017-Nov-15 14:26N 16°14' W 061°32'0 0.0
2017-Nov-15 13:47N 16°14' W 061°32'0 0.0
2017-Nov-15 13:26N 16°14' W 061°32'0 0.0
2017-Nov-15 12:56N 16°14' W 061°32'0 0.0
2017-Nov-15 12:29N 16°14' W 061°32'0 0.0
2017-Nov-15 11:59N 16°14' W 061°32'0 0.0
2017-Nov-15 11:30N 16°14' W 061°32'1 2.2
2017-Nov-15 11:00N 16°13' W 061°32'4 7.5
2017-Nov-15 10:30N 16°09' W 061°32'510.2
2017-Nov-15 10:00N 16°08' W 061°27'510.7
2017-Nov-15 09:30N 16°03' W 061°25'611.3
2017-Nov-15 08:56N 15°57' W 061°29'511.6
2017-Nov-15 08:30N 15°56' W 061°34'911.4
2017-Nov-15 07:44N 15°54' W 061°43'311.6
2017-Nov-15 07:30N 15°53' W 061°45'27 8.5
2017-Nov-15 04:17N 16°15' W 062°03'310.9
2017-Nov-15 04:00N 16°18' W 062°03'611.0
2017-Nov-15 03:30N 16°23' W 062°02'511.0
2017-Nov-15 03:00N 16°29' W 062°02'510.7
2017-Nov-15 02:30N 16°34' W 062°02'510.7
2017-Nov-15 02:00N 16°40' W 062°01'510.7
2017-Nov-15 01:31N 16°45' W 062°01'510.5
2017-Nov-15 01:00N 16°50' W 062°00'510.5
2017-Nov-15 00:30N 16°55' W 062°00'510.6
2017-Nov-15 00:00N 17°01' W 061°59'510.6
2017-Nov-14 23:30N 17°06' W 061°59'4 8.6
2017-Nov-14 23:00N 17°09' W 061°55'4 8.4
2017-Nov-14 22:30N 17°07' W 061°51'0 0.6
2017-Nov-14 22:00N 17°07' W 061°51'0 0.0
2017-Nov-14 21:30N 17°07' W 061°51'0 0.0
2017-Nov-14 21:00N 17°07' W 061°51'0 0.0
2017-Nov-14 20:30N 17°07' W 061°51'0 0.0
2017-Nov-14 20:00N 17°07' W 061°51'0 0.0
2017-Nov-14 19:30N 17°07' W 061°51'0 0.0
2017-Nov-14 19:00N 17°07' W 061°51'0 0.0
2017-Nov-14 18:30N 17°07' W 061°51'0 0.0
2017-Nov-14 18:00N 17°07' W 061°51'0 0.0
2017-Nov-14 17:30N 17°07' W 061°51'0 0.0
2017-Nov-14 17:00N 17°07' W 061°51'0 0.0
2017-Nov-14 16:30N 17°07' W 061°51'0 0.0
2017-Nov-14 16:00N 17°07' W 061°51'0 0.0
2017-Nov-14 15:30N 17°07' W 061°51'0 0.0
2017-Nov-14 15:00N 17°07' W 061°51'0 0.0
2017-Nov-14 14:30N 17°07' W 061°51'0 0.0
2017-Nov-14 14:00N 17°07' W 061°51'0 0.0
2017-Nov-14 13:30N 17°07' W 061°51'0 0.0
2017-Nov-14 13:00N 17°07' W 061°51'  

Dump ship's entire track history